sensor_id;sensor_type;location;lat;lon;timestamp;pressure;altitude;pressure_sealevel;temperature;humidity
11856;BME280;5987;53.140;8.904;2023-06-14T00:01:46;101780.53;;;14.94;100.00
11856;BME280;5987;53.140;8.904;2023-06-14T00:04:51;101783.25;;;14.90;100.00
11856;BME280;5987;53.140;8.904;2023-06-14T00:07:55;101780.63;;;14.90;100.00
11856;BME280;5987;53.140;8.904;2023-06-14T00:11:00;101779.00;;;14.86;100.00
11856;BME280;5987;53.140;8.904;2023-06-14T00:14:04;101784.31;;;14.86;100.00
11856;BME280;5987;53.140;8.904;2023-06-14T00:17:08;101787.06;;;14.83;100.00
11856;BME280;5987;53.140;8.904;2023-06-14T00:20:12;101786.88;;;14.88;100.00
11856;BME280;5987;53.140;8.904;2023-06-14T00:23:17;101792.22;;;14.86;100.00
11856;BME280;5987;53.140;8.904;2023-06-14T00:26:22;101789.84;;;14.80;100.00
11856;BME280;5987;53.140;8.904;2023-06-14T00:29:26;101791.69;;;14.78;100.00
11856;BME280;5987;53.140;8.904;2023-06-14T00:32:30;101799.28;;;14.64;100.00
11856;BME280;5987;53.140;8.904;2023-06-14T00:35:34;101790.53;;;14.62;100.00
11856;BME280;5987;53.140;8.904;2023-06-14T00:38:38;101801.44;;;14.52;100.00
11856;BME280;5987;53.140;8.904;2023-06-14T00:41:43;101809.44;;;14.51;100.00
11856;BME280;5987;53.140;8.904;2023-06-14T00:44:47;101806.00;;;14.49;100.00
11856;BME280;5987;53.140;8.904;2023-06-14T00:47:52;101806.91;;;14.48;100.00
11856;BME280;5987;53.140;8.904;2023-06-14T00:50:59;101805.81;;;14.53;100.00
11856;BME280;5987;53.140;8.904;2023-06-14T00:54:06;101807.81;;;14.47;100.00
11856;BME280;5987;53.140;8.904;2023-06-14T00:57:12;101814.19;;;14.41;100.00
11856;BME280;5987;53.140;8.904;2023-06-14T01:00:17;101816.03;;;14.39;100.00
11856;BME280;5987;53.140;8.904;2023-06-14T01:03:20;101811.72;;;14.36;100.00
11856;BME280;5987;53.140;8.904;2023-06-14T01:06:35;101817.81;;;14.38;100.00
11856;BME280;5987;53.140;8.904;2023-06-14T01:10:14;101820.75;;;14.31;100.00
11856;BME280;5987;53.140;8.904;2023-06-14T01:13:27;101815.59;;;14.28;100.00
11856;BME280;5987;53.140;8.904;2023-06-14T01:16:33;101820.81;;;14.29;100.00
11856;BME280;5987;53.140;8.904;2023-06-14T01:19:38;101818.50;;;14.20;100.00
11856;BME280;5987;53.140;8.904;2023-06-14T01:22:51;101819.44;;;14.17;100.00
11856;BME280;5987;53.140;8.904;2023-06-14T01:25:55;101820.66;;;14.09;100.00
11856;BME280;5987;53.140;8.904;2023-06-14T01:28:59;101821.47;;;14.11;100.00
11856;BME280;5987;53.140;8.904;2023-06-14T01:32:05;101825.88;;;14.10;100.00
11856;BME280;5987;53.140;8.904;2023-06-14T01:35:11;101821.97;;;13.97;100.00
11856;BME280;5987;53.140;8.904;2023-06-14T01:38:20;101824.91;;;13.87;100.00
11856;BME280;5987;53.140;8.904;2023-06-14T01:41:25;101829.41;;;13.85;100.00
11856;BME280;5987;53.140;8.904;2023-06-14T01:44:31;101828.69;;;13.80;100.00
11856;BME280;5987;53.140;8.904;2023-06-14T01:47:35;101828.69;;;13.80;100.00
11856;BME280;5987;53.140;8.904;2023-06-14T01:50:40;101834.81;;;13.81;100.00
11856;BME280;5987;53.140;8.904;2023-06-14T01:53:45;101826.91;;;13.81;100.00
11856;BME280;5987;53.140;8.904;2023-06-14T01:56:49;101830.50;;;13.78;100.00
11856;BME280;5987;53.140;8.904;2023-06-14T01:59:53;101830.78;;;13.70;100.00
11856;BME280;5987;53.140;8.904;2023-06-14T02:02:57;101832.63;;;13.67;100.00
11856;BME280;5987;53.140;8.904;2023-06-14T02:06:01;101831.13;;;13.60;100.00
11856;BME280;5987;53.140;8.904;2023-06-14T02:09:06;101830.38;;;13.56;100.00
11856;BME280;5987;53.140;8.904;2023-06-14T02:12:11;101829.72;;;13.49;100.00
11856;BME280;5987;53.140;8.904;2023-06-14T02:15:15;101829.63;;;13.52;100.00
11856;BME280;5987;53.140;8.904;2023-06-14T02:18:20;101835.28;;;13.40;100.00
11856;BME280;5987;53.140;8.904;2023-06-14T02:21:24;101828.09;;;13.45;100.00
11856;BME280;5987;53.140;8.904;2023-06-14T02:24:30;101835.38;;;13.37;100.00
11856;BME280;5987;53.140;8.904;2023-06-14T02:27:34;101843.44;;;13.32;100.00
11856;BME280;5987;53.140;8.904;2023-06-14T02:30:38;101835.34;;;13.38;100.00
11856;BME280;5987;53.140;8.904;2023-06-14T02:33:43;101838.84;;;13.39;100.00
11856;BME280;5987;53.140;8.904;2023-06-14T02:36:47;101847.81;;;13.33;100.00
11856;BME280;5987;53.140;8.904;2023-06-14T02:39:53;101851.22;;;13.37;100.00
11856;BME280;5987;53.140;8.904;2023-06-14T02:42:57;101848.88;;;13.28;100.00
11856;BME280;5987;53.140;8.904;2023-06-14T02:46:01;101852.47;;;13.25;100.00
11856;BME280;5987;53.140;8.904;2023-06-14T02:49:05;101853.88;;;13.07;100.00
11856;BME280;5987;53.140;8.904;2023-06-14T02:52:09;101858.31;;;13.07;100.00
11856;BME280;5987;53.140;8.904;2023-06-14T02:55:14;101867.81;;;13.12;100.00
11856;BME280;5987;53.140;8.904;2023-06-14T02:58:18;101866.16;;;13.08;100.00
11856;BME280;5987;53.140;8.904;2023-06-14T03:01:22;101865.53;;;13.00;100.00
11856;BME280;5987;53.140;8.904;2023-06-14T03:04:28;101867.97;;;13.06;100.00
11856;BME280;5987;53.140;8.904;2023-06-14T03:07:39;101876.09;;;13.00;100.00
11856;BME280;5987;53.140;8.904;2023-06-14T03:10:45;101875.09;;;13.04;100.00
11856;BME280;5987;53.140;8.904;2023-06-14T03:13:50;101872.50;;;13.02;100.00
11856;BME280;5987;53.140;8.904;2023-06-14T03:16:54;101883.88;;;13.03;100.00
11856;BME280;5987;53.140;8.904;2023-06-14T03:19:59;101888.38;;;12.99;100.00
11856;BME280;5987;53.140;8.904;2023-06-14T03:23:03;101891.06;;;12.98;100.00
11856;BME280;5987;53.140;8.904;2023-06-14T03:26:10;101886.72;;;12.97;100.00
11856;BME280;5987;53.140;8.904;2023-06-14T03:29:15;101902.00;;;12.85;100.00
11856;BME280;5987;53.140;8.904;2023-06-14T03:32:19;101900.63;;;13.02;100.00
11856;BME280;5987;53.140;8.904;2023-06-14T03:35:23;101905.09;;;13.00;100.00
11856;BME280;5987;53.140;8.904;2023-06-14T03:38:27;101903.88;;;13.10;100.00
11856;BME280;5987;53.140;8.904;2023-06-14T03:41:32;101893.16;;;13.16;100.00
11856;BME280;5987;53.140;8.904;2023-06-14T03:44:36;101890.00;;;13.62;100.00
11856;BME280;5987;53.140;8.904;2023-06-14T03:47:40;101887.69;;;14.55;100.00
11856;BME280;5987;53.140;8.904;2023-06-14T03:50:44;101895.59;;;14.80;100.00
11856;BME280;5987;53.140;8.904;2023-06-14T03:53:48;101895.88;;;14.96;100.00
11856;BME280;5987;53.140;8.904;2023-06-14T03:57:14;101892.78;;;15.31;100.00
11856;BME280;5987;53.140;8.904;2023-06-14T04:00:19;101898.81;;;14.88;100.00
11856;BME280;5987;53.140;8.904;2023-06-14T04:03:22;101894.06;;;14.49;100.00
11856;BME280;5987;53.140;8.904;2023-06-14T04:06:27;101905.28;;;14.05;100.00
11856;BME280;5987;53.140;8.904;2023-06-14T04:09:34;101894.88;;;14.01;100.00
11856;BME280;5987;53.140;8.904;2023-06-14T04:12:40;101908.94;;;14.01;100.00
11856;BME280;5987;53.140;8.904;2023-06-14T04:15:45;101908.78;;;14.31;100.00
11856;BME280;5987;53.140;8.904;2023-06-14T04:18:49;101914.28;;;14.50;100.00
11856;BME280;5987;53.140;8.904;2023-06-14T04:21:54;101909.16;;;14.95;100.00
11856;BME280;5987;53.140;8.904;2023-06-14T04:24:58;101911.78;;;15.18;100.00
11856;BME280;5987;53.140;8.904;2023-06-14T04:28:08;101916.13;;;15.43;100.00
11856;BME280;5987;53.140;8.904;2023-06-14T04:31:13;101920.41;;;15.23;100.00
11856;BME280;5987;53.140;8.904;2023-06-14T04:34:18;101920.28;;;15.71;100.00
11856;BME280;5987;53.140;8.904;2023-06-14T04:37:24;101921.78;;;15.78;100.00
11856;BME280;5987;53.140;8.904;2023-06-14T04:40:30;101921.97;;;16.16;100.00
11856;BME280;5987;53.140;8.904;2023-06-14T04:43:35;101920.56;;;16.28;100.00
11856;BME280;5987;53.140;8.904;2023-06-14T04:46:41;101915.66;;;16.39;100.00
11856;BME280;5987;53.140;8.904;2023-06-14T04:49:48;101917.31;;;16.62;100.00
11856;BME280;5987;53.140;8.904;2023-06-14T04:52:53;101921.41;;;16.70;100.00
11856;BME280;5987;53.140;8.904;2023-06-14T04:55:57;101918.94;;;16.65;100.00
11856;BME280;5987;53.140;8.904;2023-06-14T04:59:04;101919.72;;;17.07;100.00
11856;BME280;5987;53.140;8.904;2023-06-14T05:02:08;101920.78;;;17.03;100.00
11856;BME280;5987;53.140;8.904;2023-06-14T05:05:12;101919.94;;;17.58;100.00
11856;BME280;5987;53.140;8.904;2023-06-14T05:08:18;101922.81;;;17.72;100.00
11856;BME280;5987;53.140;8.904;2023-06-14T05:11:22;101922.78;;;18.09;100.00
11856;BME280;5987;53.140;8.904;2023-06-14T05:14:27;101918.06;;;18.14;100.00
11856;BME280;5987;53.140;8.904;2023-06-14T05:17:31;101918.03;;;18.49;100.00
11856;BME280;5987;53.140;8.904;2023-06-14T05:20:36;101920.94;;;18.44;100.00
11856;BME280;5987;53.140;8.904;2023-06-14T05:23:40;101923.09;;;18.54;100.00
11856;BME280;5987;53.140;8.904;2023-06-14T05:26:44;101922.44;;;18.32;100.00
11856;BME280;5987;53.140;8.904;2023-06-14T05:29:49;101925.16;;;18.31;100.00
11856;BME280;5987;53.140;8.904;2023-06-14T05:32:53;101925.75;;;18.20;100.00
11856;BME280;5987;53.140;8.904;2023-06-14T05:35:57;101934.41;;;18.24;100.00
11856;BME280;5987;53.140;8.904;2023-06-14T05:39:01;101927.59;;;18.36;100.00
11856;BME280;5987;53.140;8.904;2023-06-14T05:42:07;101929.97;;;18.24;100.00
11856;BME280;5987;53.140;8.904;2023-06-14T05:45:14;101942.75;;;18.51;100.00
11856;BME280;5987;53.140;8.904;2023-06-14T05:48:19;101937.03;;;18.92;100.00
11856;BME280;5987;53.140;8.904;2023-06-14T05:51:23;101941.06;;;18.66;100.00
11856;BME280;5987;53.140;8.904;2023-06-14T05:54:29;101944.91;;;18.60;100.00
11856;BME280;5987;53.140;8.904;2023-06-14T05:57:33;101950.81;;;18.49;100.00
11856;BME280;5987;53.140;8.904;2023-06-14T06:00:38;101946.91;;;18.57;100.00
11856;BME280;5987;53.140;8.904;2023-06-14T06:03:42;101949.41;;;18.93;100.00
11856;BME280;5987;53.140;8.904;2023-06-14T06:06:48;101959.88;;;18.96;100.00
11856;BME280;5987;53.140;8.904;2023-06-14T06:09:52;101958.50;;;18.89;100.00
11856;BME280;5987;53.140;8.904;2023-06-14T06:12:56;101958.91;;;19.47;100.00
11856;BME280;5987;53.140;8.904;2023-06-14T06:16:01;101956.84;;;19.98;100.00
11856;BME280;5987;53.140;8.904;2023-06-14T06:19:05;101953.81;;;19.58;100.00
11856;BME280;5987;53.140;8.904;2023-06-14T06:22:09;101955.41;;;19.77;100.00
11856;BME280;5987;53.140;8.904;2023-06-14T06:25:12;101958.66;;;19.98;100.00
11856;BME280;5987;53.140;8.904;2023-06-14T06:28:17;101960.25;;;19.86;100.00
11856;BME280;5987;53.140;8.904;2023-06-14T06:31:22;101953.69;;;20.36;100.00
11856;BME280;5987;53.140;8.904;2023-06-14T06:34:26;101955.91;;;20.44;100.00
11856;BME280;5987;53.140;8.904;2023-06-14T06:37:30;101960.16;;;20.18;100.00
11856;BME280;5987;53.140;8.904;2023-06-14T06:40:33;101955.34;;;20.39;100.00
11856;BME280;5987;53.140;8.904;2023-06-14T06:43:37;101965.34;;;20.50;100.00
11856;BME280;5987;53.140;8.904;2023-06-14T06:46:43;101972.22;;;21.26;94.33
11856;BME280;5987;53.140;8.904;2023-06-14T06:49:48;101971.91;;;20.89;95.18
11856;BME280;5987;53.140;8.904;2023-06-14T06:52:52;101973.78;;;21.16;93.98
11856;BME280;5987;53.140;8.904;2023-06-14T06:55:56;101970.88;;;21.33;92.13
11856;BME280;5987;53.140;8.904;2023-06-14T06:59:00;101969.88;;;21.21;91.69
11856;BME280;5987;53.140;8.904;2023-06-14T07:02:06;101978.34;;;21.28;89.34
11856;BME280;5987;53.140;8.904;2023-06-14T07:05:10;101983.94;;;21.80;86.54
11856;BME280;5987;53.140;8.904;2023-06-14T07:08:15;101978.97;;;21.46;84.27
11856;BME280;5987;53.140;8.904;2023-06-14T07:11:18;101982.41;;;21.48;81.78
11856;BME280;5987;53.140;8.904;2023-06-14T07:14:22;101986.78;;;20.93;87.00
11856;BME280;5987;53.140;8.904;2023-06-14T07:17:28;101986.31;;;21.57;84.23
11856;BME280;5987;53.140;8.904;2023-06-14T07:20:32;101988.91;;;21.44;81.07
11856;BME280;5987;53.140;8.904;2023-06-14T07:23:35;101992.97;;;21.64;81.32
11856;BME280;5987;53.140;8.904;2023-06-14T07:26:39;101983.69;;;21.97;79.92
11856;BME280;5987;53.140;8.904;2023-06-14T07:29:43;101986.59;;;22.07;76.54
11856;BME280;5987;53.140;8.904;2023-06-14T07:32:48;101977.59;;;22.35;74.41
11856;BME280;5987;53.140;8.904;2023-06-14T07:35:52;101977.22;;;22.27;74.21
11856;BME280;5987;53.140;8.904;2023-06-14T07:38:56;101981.69;;;22.14;72.10
11856;BME280;5987;53.140;8.904;2023-06-14T07:42:01;101978.25;;;22.12;72.23
11856;BME280;5987;53.140;8.904;2023-06-14T07:45:07;101978.06;;;22.27;69.06
11856;BME280;5987;53.140;8.904;2023-06-14T07:48:13;101971.31;;;22.22;69.23
11856;BME280;5987;53.140;8.904;2023-06-14T07:51:16;101977.69;;;22.72;68.99
11856;BME280;5987;53.140;8.904;2023-06-14T07:54:20;101977.91;;;22.43;66.85
11856;BME280;5987;53.140;8.904;2023-06-14T07:57:27;101982.53;;;22.01;66.95
11856;BME280;5987;53.140;8.904;2023-06-14T08:00:31;101981.59;;;22.15;68.16
11856;BME280;5987;53.140;8.904;2023-06-14T08:03:36;101981.91;;;22.23;66.38
11856;BME280;5987;53.140;8.904;2023-06-14T08:06:41;101989.53;;;22.17;67.27
11856;BME280;5987;53.140;8.904;2023-06-14T08:09:46;101984.03;;;22.05;68.16
11856;BME280;5987;53.140;8.904;2023-06-14T08:12:50;101994.59;;;22.34;67.64
11856;BME280;5987;53.140;8.904;2023-06-14T08:15:54;101981.09;;;22.36;66.33
11856;BME280;5987;53.140;8.904;2023-06-14T08:19:01;101984.81;;;22.20;65.81
11856;BME280;5987;53.140;8.904;2023-06-14T08:22:05;101985.84;;;22.58;64.52
11856;BME280;5987;53.140;8.904;2023-06-14T08:25:11;101979.59;;;22.96;65.93
11856;BME280;5987;53.140;8.904;2023-06-14T08:28:16;101979.22;;;23.39;64.31
11856;BME280;5987;53.140;8.904;2023-06-14T08:31:20;101971.41;;;23.85;63.06
11856;BME280;5987;53.140;8.904;2023-06-14T08:34:25;101969.81;;;23.58;63.09
11856;BME280;5987;53.140;8.904;2023-06-14T08:37:29;101977.56;;;23.50;65.32
11856;BME280;5987;53.140;8.904;2023-06-14T08:40:37;101969.59;;;23.61;62.32
11856;BME280;5987;53.140;8.904;2023-06-14T08:43:41;101966.41;;;23.56;61.71
11856;BME280;5987;53.140;8.904;2023-06-14T08:46:47;101968.06;;;23.94;61.69
11856;BME280;5987;53.140;8.904;2023-06-14T08:49:55;101972.72;;;23.31;61.16
11856;BME280;5987;53.140;8.904;2023-06-14T08:53:02;101971.66;;;23.07;61.53
11856;BME280;5987;53.140;8.904;2023-06-14T08:56:08;101978.47;;;23.37;61.41
11856;BME280;5987;53.140;8.904;2023-06-14T08:59:16;101982.81;;;22.75;62.20
11856;BME280;5987;53.140;8.904;2023-06-14T09:02:20;101977.78;;;22.84;61.97
11856;BME280;5987;53.140;8.904;2023-06-14T09:05:27;101973.19;;;22.86;62.23
11856;BME280;5987;53.140;8.904;2023-06-14T09:08:31;101980.38;;;22.47;64.00
11856;BME280;5987;53.140;8.904;2023-06-14T09:11:35;101972.22;;;22.87;62.78
11856;BME280;5987;53.140;8.904;2023-06-14T09:14:39;101979.53;;;23.96;61.80
11856;BME280;5987;53.140;8.904;2023-06-14T09:17:44;101984.00;;;22.71;62.44
11856;BME280;5987;53.140;8.904;2023-06-14T09:20:50;101986.03;;;22.81;62.14
11856;BME280;5987;53.140;8.904;2023-06-14T09:23:55;101987.69;;;23.33;62.14
11856;BME280;5987;53.140;8.904;2023-06-14T09:26:58;101971.66;;;23.57;61.48
11856;BME280;5987;53.140;8.904;2023-06-14T09:30:03;101975.31;;;23.19;61.39
11856;BME280;5987;53.140;8.904;2023-06-14T09:33:08;101969.97;;;23.19;62.51
11856;BME280;5987;53.140;8.904;2023-06-14T09:36:16;101979.59;;;23.59;60.70
11856;BME280;5987;53.140;8.904;2023-06-14T09:39:20;101965.41;;;23.81;60.37
11856;BME280;5987;53.140;8.904;2023-06-14T09:42:24;101972.72;;;23.55;60.41
11856;BME280;5987;53.140;8.904;2023-06-14T09:45:33;101960.13;;;22.81;60.08
11856;BME280;5987;53.140;8.904;2023-06-14T09:48:37;101953.09;;;23.54;60.16
11856;BME280;5987;53.140;8.904;2023-06-14T09:51:51;101950.09;;;24.30;58.97
11856;BME280;5987;53.140;8.904;2023-06-14T09:54:59;101961.22;;;23.90;57.72
11856;BME280;5987;53.140;8.904;2023-06-14T09:58:06;101961.59;;;23.72;59.84
11856;BME280;5987;53.140;8.904;2023-06-14T10:01:10;101960.47;;;23.39;59.16
11856;BME280;5987;53.140;8.904;2023-06-14T10:04:21;101962.66;;;23.08;59.51
11856;BME280;5987;53.140;8.904;2023-06-14T10:07:30;101962.41;;;23.24;59.22
11856;BME280;5987;53.140;8.904;2023-06-14T10:10:35;101957.41;;;23.20;57.23
11856;BME280;5987;53.140;8.904;2023-06-14T10:13:42;101960.72;;;23.23;58.94
11856;BME280;5987;53.140;8.904;2023-06-14T10:16:56;101952.34;;;23.28;58.39
11856;BME280;5987;53.140;8.904;2023-06-14T10:20:21;101965.91;;;23.14;60.52
11856;BME280;5987;53.140;8.904;2023-06-14T10:23:31;101950.44;;;24.14;58.90
11856;BME280;5987;53.140;8.904;2023-06-14T10:26:51;101948.19;;;23.72;54.67
11856;BME280;5987;53.140;8.904;2023-06-14T10:30:08;101953.06;;;23.67;55.22
11856;BME280;5987;53.140;8.904;2023-06-14T10:33:15;101951.31;;;22.92;58.91
11856;BME280;5987;53.140;8.904;2023-06-14T10:36:28;101949.78;;;23.51;56.77
11856;BME280;5987;53.140;8.904;2023-06-14T10:39:39;101947.28;;;23.60;57.66
11856;BME280;5987;53.140;8.904;2023-06-14T10:42:52;101954.31;;;23.00;57.70
11856;BME280;5987;53.140;8.904;2023-06-14T10:46:17;101951.97;;;22.95;56.80
11856;BME280;5987;53.140;8.904;2023-06-14T10:49:38;101938.94;;;23.28;55.75
11856;BME280;5987;53.140;8.904;2023-06-14T10:52:45;101939.13;;;22.88;57.31
11856;BME280;5987;53.140;8.904;2023-06-14T10:55:51;101944.00;;;23.20;58.75
11856;BME280;5987;53.140;8.904;2023-06-14T10:58:56;101946.16;;;23.15;57.44
11856;BME280;5987;53.140;8.904;2023-06-14T11:05:55;101933.44;;;23.78;55.39
11856;BME280;5987;53.140;8.904;2023-06-14T11:09:38;101933.53;;;23.17;57.17
11856;BME280;5987;53.140;8.904;2023-06-14T11:12:54;101930.34;;;22.86;56.02
11856;BME280;5987;53.140;8.904;2023-06-14T11:15:59;101920.75;;;23.07;57.31
11856;BME280;5987;53.140;8.904;2023-06-14T11:19:03;101925.09;;;23.34;54.81
11856;BME280;5987;53.140;8.904;2023-06-14T11:22:08;101920.00;;;24.38;55.65
11856;BME280;5987;53.140;8.904;2023-06-14T11:25:12;101922.69;;;23.91;52.97
11856;BME280;5987;53.140;8.904;2023-06-14T11:28:18;101912.13;;;24.12;52.37
11856;BME280;5987;53.140;8.904;2023-06-14T11:31:24;101911.75;;;23.81;51.85
11856;BME280;5987;53.140;8.904;2023-06-14T11:34:29;101908.84;;;25.10;50.71
11856;BME280;5987;53.140;8.904;2023-06-14T11:37:33;101906.69;;;24.93;50.19
11856;BME280;5987;53.140;8.904;2023-06-14T11:40:38;101919.72;;;23.83;51.60
11856;BME280;5987;53.140;8.904;2023-06-14T11:43:43;101906.69;;;23.89;51.93
11856;BME280;5987;53.140;8.904;2023-06-14T11:46:47;101897.47;;;23.69;53.74
11856;BME280;5987;53.140;8.904;2023-06-14T11:49:53;101901.16;;;23.79;52.75
11856;BME280;5987;53.140;8.904;2023-06-14T11:52:59;101907.47;;;23.19;53.31
11856;BME280;5987;53.140;8.904;2023-06-14T11:56:09;101896.91;;;23.53;55.39
11856;BME280;5987;53.140;8.904;2023-06-14T11:59:15;101893.47;;;24.33;52.49
11856;BME280;5987;53.140;8.904;2023-06-14T12:02:21;101889.50;;;24.50;52.87
11856;BME280;5987;53.140;8.904;2023-06-14T12:05:27;101898.88;;;24.56;50.75
11856;BME280;5987;53.140;8.904;2023-06-14T12:08:36;101891.50;;;25.14;49.55
11856;BME280;5987;53.140;8.904;2023-06-14T12:11:42;101881.94;;;25.44;50.77
11856;BME280;5987;53.140;8.904;2023-06-14T12:14:50;101889.28;;;25.20;49.77
11856;BME280;5987;53.140;8.904;2023-06-14T12:17:54;101888.28;;;24.77;50.59
11856;BME280;5987;53.140;8.904;2023-06-14T12:20:59;101881.09;;;24.66;48.91
11856;BME280;5987;53.140;8.904;2023-06-14T12:24:05;101886.00;;;23.91;50.32
11856;BME280;5987;53.140;8.904;2023-06-14T12:27:09;101885.47;;;23.26;52.47
11856;BME280;5987;53.140;8.904;2023-06-14T12:30:19;101895.31;;;23.26;53.58
11856;BME280;5987;53.140;8.904;2023-06-14T12:33:23;101890.47;;;23.55;52.91
11856;BME280;5987;53.140;8.904;2023-06-14T12:36:27;101883.50;;;24.24;51.13
11856;BME280;5987;53.140;8.904;2023-06-14T12:39:31;101883.47;;;25.03;49.99
11856;BME280;5987;53.140;8.904;2023-06-14T12:42:35;101882.75;;;24.22;50.86
11856;BME280;5987;53.140;8.904;2023-06-14T12:45:40;101886.03;;;25.05;48.41
11856;BME280;5987;53.140;8.904;2023-06-14T12:48:44;101869.72;;;25.40;48.60
11856;BME280;5987;53.140;8.904;2023-06-14T12:51:47;101873.16;;;25.20;48.59
11856;BME280;5987;53.140;8.904;2023-06-14T12:54:51;101877.56;;;25.32;49.45
11856;BME280;5987;53.140;8.904;2023-06-14T12:57:55;101881.91;;;24.89;49.78
11856;BME280;5987;53.140;8.904;2023-06-14T13:01:00;101878.59;;;24.97;50.00
11856;BME280;5987;53.140;8.904;2023-06-14T13:04:04;101862.66;;;25.81;49.55
11856;BME280;5987;53.140;8.904;2023-06-14T13:07:08;101872.72;;;25.03;48.48
11856;BME280;5987;53.140;8.904;2023-06-14T13:10:12;101881.06;;;24.32;49.55
11856;BME280;5987;53.140;8.904;2023-06-14T13:13:17;101880.31;;;24.41;50.24
11856;BME280;5987;53.140;8.904;2023-06-14T13:16:23;101882.25;;;24.05;51.44
11856;BME280;5987;53.140;8.904;2023-06-14T13:19:27;101882.31;;;23.57;51.43
11856;BME280;5987;53.140;8.904;2023-06-14T13:22:30;101872.81;;;23.64;51.44
11856;BME280;5987;53.140;8.904;2023-06-14T13:25:35;101874.22;;;24.28;50.86
11856;BME280;5987;53.140;8.904;2023-06-14T13:28:39;101863.59;;;25.27;48.36
11856;BME280;5987;53.140;8.904;2023-06-14T13:31:44;101859.50;;;25.76;48.78
11856;BME280;5987;53.140;8.904;2023-06-14T13:34:48;101865.75;;;25.12;49.68
11856;BME280;5987;53.140;8.904;2023-06-14T13:37:51;101860.81;;;24.51;49.56
11856;BME280;5987;53.140;8.904;2023-06-14T13:40:55;101872.34;;;23.94;51.08
11856;BME280;5987;53.140;8.904;2023-06-14T13:43:59;101865.25;;;23.93;52.00
11856;BME280;5987;53.140;8.904;2023-06-14T13:47:07;101867.09;;;23.93;52.70
11856;BME280;5987;53.140;8.904;2023-06-14T13:50:11;101870.09;;;23.53;53.64
11856;BME280;5987;53.140;8.904;2023-06-14T13:53:15;101873.00;;;23.50;53.41
11856;BME280;5987;53.140;8.904;2023-06-14T13:56:19;101870.25;;;23.27;52.62
11856;BME280;5987;53.140;8.904;2023-06-14T13:59:24;101874.44;;;23.42;52.65
11856;BME280;5987;53.140;8.904;2023-06-14T14:02:30;101864.44;;;24.27;51.10
11856;BME280;5987;53.140;8.904;2023-06-14T14:05:33;101856.94;;;25.10;49.05
11856;BME280;5987;53.140;8.904;2023-06-14T14:08:37;101853.06;;;25.46;46.39
11856;BME280;5987;53.140;8.904;2023-06-14T14:11:41;101844.16;;;25.46;47.65
11856;BME280;5987;53.140;8.904;2023-06-14T14:14:45;101843.75;;;25.93;46.72
11856;BME280;5987;53.140;8.904;2023-06-14T14:17:51;101844.56;;;25.18;47.80
11856;BME280;5987;53.140;8.904;2023-06-14T14:20:56;101857.41;;;24.60;49.30
11856;BME280;5987;53.140;8.904;2023-06-14T14:24:00;101859.69;;;24.08;50.10
11856;BME280;5987;53.140;8.904;2023-06-14T14:27:05;101857.09;;;24.06;50.50
11856;BME280;5987;53.140;8.904;2023-06-14T14:30:11;101854.09;;;23.75;51.43
11856;BME280;5987;53.140;8.904;2023-06-14T14:33:18;101855.56;;;23.79;50.17
11856;BME280;5987;53.140;8.904;2023-06-14T14:36:22;101860.53;;;24.08;50.46
11856;BME280;5987;53.140;8.904;2023-06-14T14:39:25;101849.69;;;23.63;50.77
11856;BME280;5987;53.140;8.904;2023-06-14T14:42:29;101852.72;;;23.94;51.09
11856;BME280;5987;53.140;8.904;2023-06-14T14:45:33;101849.19;;;24.05;51.17
11856;BME280;5987;53.140;8.904;2023-06-14T14:48:38;101848.47;;;24.37;50.85
11856;BME280;5987;53.140;8.904;2023-06-14T14:51:42;101856.19;;;24.75;50.96
11856;BME280;5987;53.140;8.904;2023-06-14T14:54:46;101845.34;;;25.09;49.74
11856;BME280;5987;53.140;8.904;2023-06-14T14:57:50;101855.19;;;24.42;49.12
11856;BME280;5987;53.140;8.904;2023-06-14T15:00:54;101855.69;;;24.70;49.50
11856;BME280;5987;53.140;8.904;2023-06-14T15:03:59;101861.19;;;24.80;48.31
11856;BME280;5987;53.140;8.904;2023-06-14T15:07:04;101861.78;;;24.38;48.58
11856;BME280;5987;53.140;8.904;2023-06-14T15:10:08;101861.31;;;24.56;48.92
11856;BME280;5987;53.140;8.904;2023-06-14T15:13:14;101856.53;;;24.37;49.39
11856;BME280;5987;53.140;8.904;2023-06-14T15:16:17;101861.41;;;24.43;48.82
11856;BME280;5987;53.140;8.904;2023-06-14T15:19:23;101855.56;;;24.49;49.55
11856;BME280;5987;53.140;8.904;2023-06-14T15:22:27;101853.97;;;24.46;48.90
11856;BME280;5987;53.140;8.904;2023-06-14T15:25:30;101851.53;;;24.43;48.54
11856;BME280;5987;53.140;8.904;2023-06-14T15:28:35;101847.50;;;24.26;48.51
11856;BME280;5987;53.140;8.904;2023-06-14T15:31:39;101842.13;;;24.49;47.74
11856;BME280;5987;53.140;8.904;2023-06-14T15:34:44;101848.06;;;24.98;47.30
11856;BME280;5987;53.140;8.904;2023-06-14T15:37:48;101843.34;;;24.45;48.13
11856;BME280;5987;53.140;8.904;2023-06-14T15:40:52;101847.34;;;23.94;48.65
11856;BME280;5987;53.140;8.904;2023-06-14T15:43:55;101847.50;;;23.79;49.02
11856;BME280;5987;53.140;8.904;2023-06-14T15:46:59;101854.13;;;23.87;49.20
11856;BME280;5987;53.140;8.904;2023-06-14T15:50:06;101846.47;;;23.93;49.41
11856;BME280;5987;53.140;8.904;2023-06-14T15:53:10;101843.75;;;23.82;48.80
11856;BME280;5987;53.140;8.904;2023-06-14T15:56:14;101841.31;;;23.43;49.08
11856;BME280;5987;53.140;8.904;2023-06-14T15:59:18;101842.88;;;23.70;48.91
11856;BME280;5987;53.140;8.904;2023-06-14T16:02:22;101842.00;;;23.94;45.78
11856;BME280;5987;53.140;8.904;2023-06-14T16:05:27;101837.59;;;24.49;45.47
11856;BME280;5987;53.140;8.904;2023-06-14T16:08:31;101834.69;;;24.75;45.73
11856;BME280;5987;53.140;8.904;2023-06-14T16:11:41;101832.09;;;24.51;45.20
11856;BME280;5987;53.140;8.904;2023-06-14T16:14:46;101827.13;;;24.69;45.42
11856;BME280;5987;53.140;8.904;2023-06-14T16:17:49;101824.56;;;24.68;44.78
11856;BME280;5987;53.140;8.904;2023-06-14T16:20:54;101818.81;;;24.72;44.85